首页
METAR-TAF:

METAR-TAF

机场 :

Northolt, 英格兰

纬度: 51-33N, 经度: 000-25W, 海拔: 38米

当前天气观测

该预报发布于42分钟前的15:50 UTC
风速5节,风向东转东北
温度 12°C
湿度 54%
气压 1039 hPa
能见度10公里或以上
少量云层高于4000英尺

METAR: EGWU 271550Z 07005KT 9999 FEW040 12/03 Q1039 NOSIG RMK BLU BLU

时间: 16:32 (16:32 UTC)

预报

该预报发布于1小时和46分钟前的14:46 UTC
预报有效从27日的 15点(UTC)到 28日的 09点(UTC)
风速5节,风向东北
能见度10公里或以上
少量云层高于3800英尺
成为
从 28日的 00点(UTC)到 28日的 03点(UTC)
能見度: 7000
轻雾
几率 30%
从 28日的 00点(UTC)到 28日的 07点(UTC)
能見度: 4000
多云层高于400英尺
几率 30%
从 28日的 07点(UTC)到 28日的 09点(UTC)
多云层高于600英尺

TAF: EGWU 271446Z 2715/2809 05005KT 9999 FEW038 BECMG 2800/2803 7000 BR PROB30 2800/2807 4000 BKN004 PROB30 2807/2809 BKN006

超过4000个机场的气象观测和天气预报(METAR&TAF报告)。

可查询的气象台以黄色和红色小点在地图上表示。

将鼠标移到小点上方,可查看气象台名称。

然后点击查看天气观测和预报。

如需切换地图:点击带黑十字的绿色按钮放大地图;点击带横线的绿色按钮缩小地图;或者点击绿色箭头查看邻近地区的地图。


METAR-TAF: